KWWR/WWR METAR and TAF weather

Enter ICAO airport designator
Station Type Date Time Source
KWWR METAR 2021/03/05 19:15 UTC NOAA

KWWR 051915Z AUTO 02014KT 10SM SCT026 BKN036 OVC047 12/06 A3023 RMK AO2


Station Type Date Time Source
KWWR Decoded METAR 2021/03/05 19:15 UTC NOAA

Woodward, West Woodward Airport, OK, United States (KWWR) 36-26-12N 099-31-16W 667M
Mar 05, 2021 - 02:15 PM EST / 2021.03.05 1915 UTC
Wind: from the NNE (020 degrees) at 16 MPH (14 KT):0
Visibility: 10 mile(s):0
Sky conditions: overcast
Temperature: 53 F (12 C)
Dew Point: 42 F (6 C)
Relative Humidity: 66%
Pressure (altimeter): 30.23 in. Hg (1023 hPa)
ob: KWWR 051915Z AUTO 02014KT 10SM SCT026 BKN036 OVC047 12/06 A3023 RMK AO2
cycle: 19

Station Type Date Time Source
KWWR TAF 2021/03/05 18:22 UTC NOAA

TAF KWWR 051720Z 0518/0618 02015G23KT P6SM BKN025
FM052100 04011KT P6SM SCT040
FM060600 20005KT P6SM SKC
TEMPO 0610/0614 4SM BR SCT010

Example: see airport list